createdAt,value
2022-12-06T00:00:39.156Z,64.10
2022-12-06T00:10:47.276Z,96.10
2022-12-06T00:20:54.458Z,94.30
2022-12-06T00:30:59.816Z,80.60
2022-12-06T00:41:06.607Z,66.70
2022-12-06T00:51:14.855Z,66.40
2022-12-06T01:01:24.016Z,90.10
2022-12-06T01:11:32.345Z,92.70
2022-12-06T01:21:39.443Z,69.80
2022-12-06T01:31:46.455Z,71.90
2022-12-06T01:41:53.459Z,67.40
2022-12-06T01:52:00.997Z,106.10
2022-12-06T02:02:08.866Z,107.50
2022-12-06T02:12:17.712Z,83.90
2022-12-06T02:22:29.898Z,74.40
2022-12-06T02:32:36.704Z,64.90
2022-12-06T02:42:47.829Z,94.80
2022-12-06T02:52:59.967Z,91.90
2022-12-06T03:03:13.773Z,72.50
2022-12-06T03:13:26.490Z,75.70
2022-12-06T03:23:34.232Z,74.80
2022-12-06T03:33:46.344Z,63.90
2022-12-06T03:43:53.976Z,81.70
2022-12-06T03:54:04.749Z,59.30
2022-12-06T04:04:12.469Z,54.20
2022-12-06T04:14:19.626Z,45.30
2022-12-06T04:24:25.756Z,48.70
2022-12-06T04:34:50.605Z,48.30
2022-12-06T04:44:57.920Z,44.90
2022-12-06T04:55:06.177Z,56.90
2022-12-06T05:05:12.303Z,71.10
2022-12-06T05:15:19.410Z,56.30
2022-12-06T05:25:26.559Z,54.20
2022-12-06T05:35:33.870Z,47.90
2022-12-06T05:45:40.800Z,46.20
2022-12-06T05:55:48.049Z,44.60
2022-12-06T06:16:03.988Z,61.30
2022-12-06T06:26:09.170Z,67.60
2022-12-06T06:36:16.237Z,52.20
2022-12-06T06:46:26.375Z,39.20
2022-12-06T06:56:33.649Z,40.90
2022-12-06T07:06:40.695Z,41.10
2022-12-06T07:16:47.850Z,41.60
2022-12-06T07:26:54.974Z,43.10
2022-12-06T07:37:02.390Z,45.70
2022-12-06T07:47:09.531Z,56.50
2022-12-06T07:57:16.779Z,58.20
2022-12-06T08:07:23.636Z,68.20
2022-12-06T08:17:31.217Z,62.80
2022-12-06T08:27:38.577Z,53.00
2022-12-06T08:37:46.255Z,58.80
2022-12-06T08:47:53.189Z,80.20
2022-12-06T08:58:02.948Z,89.70
2022-12-06T09:08:10.397Z,73.00
2022-12-06T09:18:20.573Z,71.20
2022-12-06T09:28:30.898Z,65.70
2022-12-06T09:38:41.707Z,64.60
2022-12-06T09:49:29.223Z,96.80
2022-12-06T09:59:40.523Z,66.70
2022-12-06T10:09:46.227Z,55.50
2022-12-06T10:19:54.277Z,57.20
2022-12-06T10:30:06.473Z,56.80
2022-12-06T10:40:18.725Z,61.00
2022-12-06T10:50:23.588Z,45.80
2022-12-06T11:00:36.032Z,45.50
2022-12-06T11:10:45.063Z,44.40
2022-12-06T11:20:53.758Z,48.70
2022-12-06T11:31:06.429Z,56.00
2022-12-06T11:41:11.843Z,47.80
2022-12-06T11:51:27.481Z,36.90
2022-12-06T12:01:42.062Z,31.60
2022-12-06T12:11:58.694Z,27.30
2022-12-06T12:22:21.189Z,56.80
2022-12-06T12:32:28.810Z,40.10
2022-12-06T12:42:40.213Z,22.00
2022-12-06T12:52:48.062Z,24.50
2022-12-06T13:03:00.003Z,29.90
2022-12-06T13:13:06.593Z,30.80
2022-12-06T13:23:15.614Z,19.60
2022-12-06T13:33:25.806Z,22.30
2022-12-06T13:43:58.822Z,35.80
2022-12-06T13:54:37.151Z,21.90
2022-12-06T14:04:45.093Z,21.80
2022-12-06T14:14:56.334Z,28.20
2022-12-06T14:25:01.422Z,35.50
2022-12-06T14:35:07.625Z,36.80
2022-12-06T14:45:14.359Z,23.20
2022-12-06T14:55:21.206Z,20.10
2022-12-06T15:05:33.662Z,26.40
2022-12-06T15:15:39.799Z,27.80
2022-12-06T15:25:47.177Z,34.40
2022-12-06T15:35:55.864Z,46.70
2022-12-06T15:46:05.276Z,27.40
2022-12-06T15:56:12.920Z,32.20
2022-12-06T16:06:22.127Z,27.30
2022-12-06T16:16:30.370Z,22.00
2022-12-06T16:26:41.036Z,29.60
2022-12-06T16:36:59.298Z,23.90
2022-12-06T16:47:10.530Z,38.80
2022-12-06T16:57:19.832Z,35.70
2022-12-06T17:07:27.782Z,28.30
2022-12-06T17:17:35.607Z,22.80
2022-12-06T17:27:43.147Z,18.80
2022-12-06T17:37:52.706Z,32.00
2022-12-06T17:48:00.302Z,40.60
2022-12-06T17:58:09.571Z,30.20
2022-12-06T18:08:16.766Z,44.30
2022-12-06T18:18:24.259Z,43.30
2022-12-06T18:28:31.550Z,37.90
2022-12-06T18:38:39.953Z,25.20
2022-12-06T18:48:49.700Z,44.60
2022-12-06T18:58:58.553Z,44.10
2022-12-06T19:09:05.286Z,46.80
2022-12-06T19:19:16.855Z,19.00
2022-12-06T19:29:32.548Z,18.20
2022-12-06T19:39:40.383Z,13.00
2022-12-06T19:49:46.380Z,13.20
2022-12-06T19:59:56.776Z,19.90
2022-12-06T20:10:06.027Z,16.70
2022-12-06T20:20:10.392Z,22.20
2022-12-06T20:30:18.184Z,16.90
2022-12-06T20:40:31.083Z,16.90
2022-12-06T20:50:39.581Z,17.00
2022-12-06T21:00:45.064Z,14.40
2022-12-06T21:11:20.997Z,32.90
2022-12-06T21:21:32.632Z,28.30
2022-12-06T21:31:41.064Z,11.70
2022-12-06T21:41:48.711Z,8.40
2022-12-06T21:52:02.241Z,7.90
2022-12-06T22:02:13.680Z,18.60
2022-12-06T22:12:20.957Z,14.70
2022-12-06T22:22:28.153Z,12.80
2022-12-06T22:32:35.832Z,23.10
2022-12-06T22:42:43.295Z,15.30
2022-12-06T22:52:50.742Z,17.40
2022-12-06T23:02:56.665Z,39.00
2022-12-06T23:13:03.983Z,17.50
2022-12-06T23:23:11.192Z,20.50
2022-12-06T23:33:22.692Z,24.00
2022-12-06T23:43:30.557Z,17.50
2022-12-06T23:53:39.689Z,15.70
